Terminal Aerodrome Forecast
Issued by NWS

Home | Current Version | Previous Version | Graphics & Text | Print | Product List | Glossary On
Versions: 1 2 3 4 5 6 7 8 9 10 11 12 13 14 15 16 17
000
FTUS43 KMPX 081853 AAA
TAFAXN
TAF AMD
KAXN 081853Z 0819/0918 32016G26KT 3SM -SN BLSN BKN015 OVC025
     FM090100 31011KT P6SM BKN020
     FM091500 31007KT P6SM SCT025=

USA.gov is the U.S. government's official web portal to all federal, state and local government web resources and services.